Time;durP1;ratioP1;P1;durP2;ratioP2;P2;SDS_P1;SDS_P2;PMS_P1;PMS_P2;Temp;Humidity;BMP_temperature;BMP_pressure;BME280_temperature;BME280_humidity;BME280_pressure;Samples;Min_cycle;Max_cycle;Signal;HPM_P1;HPM_P2
2022/04/11 00:02:03;;;;;;;;;;;;;;;6.93;61.85;94775.91;5116111;28;1091;-50
2022/04/11 00:04:29;;;;;;;;;;;;;;;6.89;62.03;94779.84;5116076;28;1906;-50
2022/04/11 00:06:55;;;;;;;;;;;;;;;6.77;61.85;94779.22;5115911;28;960;-50
2022/04/11 00:09:21;;;;;;;;;;;;;;;6.71;63.03;94778.94;5116015;28;1083;-50
2022/04/11 00:11:47;;;;;;;;;;;;;;;6.70;62.60;94783.44;5115398;28;1040;-50
2022/04/11 00:14:13;;;;;;;;;;;;;;;6.76;61.40;94789.97;5116231;28;1036;-50
2022/04/11 00:16:39;;;;;;;;;;;;;;;6.75;62.09;94794.44;5115725;28;1095;-50
2022/04/11 00:19:06;;;;;;;;;;;;;;;6.82;60.95;94790.22;5116076;28;1020;-50
2022/04/11 00:21:32;;;;;;;;;;;;;;;6.77;60.41;94795.16;5115723;28;1940;-50
2022/04/11 00:23:58;;;;;;;;;;;;;;;6.76;61.57;94795.28;5115650;28;1996;-50
2022/04/11 00:26:24;;;;;;;;;;;;;;;6.81;60.18;94798.31;5115493;28;991;-50
2022/04/11 00:28:50;;;;;;;;;;;;;;;6.72;60.34;94810.69;5115956;28;983;-50
2022/04/11 00:31:16;;;;;;;;;;;;;;;6.71;60.67;94818.81;5115679;28;1016;-50
2022/04/11 00:33:42;;;;;;;;;;;;;;;6.65;59.86;94821.03;5115578;28;1068;-50
2022/04/11 00:36:08;;;;;;;;;;;;;;;6.66;59.32;94824.56;5115576;28;1031;-50
2022/04/11 00:38:34;;;;;;;;;;;;;;;6.62;59.02;94821.34;5115380;28;977;-50
2022/04/11 00:41:00;;;;;;;;;;;;;;;6.65;59.27;94826.34;5115267;28;1020;-50
2022/04/11 00:43:32;;;;;;;;;;;;;;;6.64;58.92;94837.16;5115294;28;971;-50
2022/04/11 00:45:59;;;;;;;;;;;;;;;6.68;59.17;94841.19;5115295;28;1190;-50
2022/04/11 00:48:25;;;;;;;;;;;;;;;6.70;58.03;94838.41;5115297;28;1023;-50
2022/04/11 00:50:53;;;;;;;;;;;;;;;6.70;57.86;94836.56;5116705;27;1158;-50
2022/04/11 00:53:19;;;;;;;;;;;;;;;6.64;58.25;94843.31;5117108;27;1092;-50
2022/04/11 00:55:46;;;;;;;;;;;;;;;6.67;58.27;94838.69;5115316;28;1041;-50
2022/04/11 00:58:12;;;;;;;;;;;;;;;6.67;57.73;94847.47;5115211;28;952;-50
2022/04/11 01:00:39;;;;;;;;;;;;;;;6.67;58.19;94847.47;5115255;28;1053;-50
2022/04/11 01:03:05;;;;;;;;;;;;;;;6.70;58.27;94852.50;5115064;28;965;-50
2022/04/11 01:05:31;;;;;;;;;;;;;;;6.63;57.41;94854.06;5115193;28;1989;-50
2022/04/11 01:08:07;;;;;;;;;;;;;;;6.68;57.76;94850.97;5114602;28;926;-50
2022/04/11 01:10:33;;;;;;;;;;;;;;;6.63;56.86;94864.69;5114723;28;1068;-50
2022/04/11 01:12:59;;;;;;;;;;;;;;;6.56;57.50;94861.75;5114658;28;1044;-50
2022/04/11 01:15:26;;;;;;;;;;;;;;;6.63;56.82;94864.69;5114900;28;999;-50
2022/04/11 01:17:52;;;;;;;;;;;;;;;6.64;56.63;94866.38;5114548;28;973;-50
2022/04/11 01:20:19;;;;;;;;;;;;;;;6.63;56.76;94870.00;5114764;28;980;-50
2022/04/11 01:22:46;;;;;;;;;;;;;;;6.63;56.84;94876.16;5114087;28;1095;-50
2022/04/11 01:25:12;;;;;;;;;;;;;;;6.66;57.04;94877.69;5114155;28;1910;-50
2022/04/11 01:27:39;;;;;;;;;;;;;;;6.63;57.06;94881.47;5114630;28;1000;-50
2022/04/11 01:30:06;;;;;;;;;;;;;;;6.57;56.77;94881.22;5114538;28;1013;-50
2022/04/11 01:32:32;;;;;;;;;;;;;;;6.62;56.83;94889.56;5114578;28;1185;-50
2022/04/11 01:34:58;;;;;;;;;;;;;;;6.62;56.91;94890.44;5096527;28;1017;-50
2022/04/11 01:37:24;;;;;;;;;;;;;;;6.60;56.97;94886.22;5114133;28;1091;-50
2022/04/11 01:39:50;;;;;;;;;;;;;;;6.62;56.98;94890.44;5114109;28;1041;-50
2022/04/11 01:42:16;;;;;;;;;;;;;;;6.68;57.08;94898.78;5113770;28;1083;-50
2022/04/11 01:44:42;;;;;;;;;;;;;;;6.70;55.77;94899.50;5114434;28;1987;-50
2022/04/11 01:47:08;;;;;;;;;;;;;;;6.68;56.81;94910.28;5114055;28;1049;-50
2022/04/11 01:49:34;;;;;;;;;;;;;;;6.69;57.44;94905.78;5114339;28;1045;-50
2022/04/11 01:52:00;;;;;;;;;;;;;;;6.66;55.72;94920.19;5109463;28;1210;-51
2022/04/11 01:54:26;;;;;;;;;;;;;;;6.61;56.60;94915.31;5114140;28;976;-50
2022/04/11 01:56:52;;;;;;;;;;;;;;;6.61;55.93;94919.78;5114144;28;965;-50
2022/04/11 01:59:18;;;;;;;;;;;;;;;6.58;56.16;94918.25;5113972;28;1032;-50
2022/04/11 02:01:44;;;;;;;;;;;;;;;6.57;56.13;94921.06;5113980;28;1029;-50
2022/04/11 02:04:10;;;;;;;;;;;;;;;6.54;56.39;94934.59;5113708;28;1985;-50
2022/04/11 02:06:36;;;;;;;;;;;;;;;6.61;56.19;94933.06;5113828;28;953;-51
2022/04/11 02:09:03;;;;;;;;;;;;;;;6.52;55.94;94933.91;5113778;28;1048;-50
2022/04/11 02:11:29;;;;;;;;;;;;;;;6.61;56.01;94944.53;5113766;28;1831;-50
2022/04/11 02:13:55;;;;;;;;;;;;;;;6.58;55.88;94951.94;5113517;28;1037;-50
2022/04/11 02:16:23;;;;;;;;;;;;;;;6.52;55.99;94944.53;5114029;28;1075;-50
2022/04/11 02:18:49;;;;;;;;;;;;;;;6.59;56.37;94949.16;5113531;28;969;-50
2022/04/11 02:21:15;;;;;;;;;;;;;;;6.55;55.91;94950.41;5113966;28;973;-50
2022/04/11 02:23:41;;;;;;;;;;;;;;;6.50;56.05;94943.84;5113740;28;1992;-50
2022/04/11 02:26:08;;;;;;;;;;;;;;;6.41;56.04;94945.50;5113496;28;1035;-50
2022/04/11 02:28:34;;;;;;;;;;;;;;;6.38;55.99;94941.34;5113451;28;1020;-50
2022/04/11 02:31:00;;;;;;;;;;;;;;;6.34;56.73;94939.13;5113834;28;1019;-50
2022/04/11 02:33:26;;;;;;;;;;;;;;;6.37;56.30;94950.25;5113445;28;1040;-50
2022/04/11 02:35:52;;;;;;;;;;;;;;;6.39;56.30;94958.97;5115163;28;1058;-49
2022/04/11 02:38:18;;;;;;;;;;;;;;;6.38;56.01;94949.31;5117955;28;1064;-50
2022/04/11 02:40:46;;;;;;;;;;;;;;;6.32;56.22;94960.50;5117710;28;1171;-50
2022/04/11 02:43:12;;;;;;;;;;;;;;;6.35;55.49;94956.72;5117542;28;968;-50
2022/04/11 02:45:38;;;;;;;;;;;;;;;6.24;55.70;94953.22;5117682;28;1998;-50
2022/04/11 02:48:04;;;;;;;;;;;;;;;6.23;55.54;94963.97;5117566;28;1931;-50
2022/04/11 02:50:30;;;;;;;;;;;;;;;6.20;56.29;94964.25;5117462;28;984;-50
2022/04/11 02:52:56;;;;;;;;;;;;;;;6.15;56.72;94964.66;5121604;27;1250;-50
2022/04/11 02:55:21;;;;;;;;;;;;;;;6.17;55.84;94975.16;5117239;28;1101;-50
2022/04/11 02:57:47;;;;;;;;;;;;;;;6.27;55.84;94983.13;5117570;28;1048;-50
2022/04/11 03:00:14;;;;;;;;;;;;;;;6.24;56.26;94986.88;5117264;28;1033;-50
2022/04/11 03:02:40;;;;;;;;;;;;;;;6.28;56.03;94992.75;5117665;28;1051;-50
2022/04/11 03:05:06;;;;;;;;;;;;;;;6.28;56.08;94992.75;5116831;28;1913;-50
2022/04/11 03:07:32;;;;;;;;;;;;;;;6.31;55.78;95003.09;5117539;28;996;-50
2022/04/11 03:09:58;;;;;;;;;;;;;;;6.28;55.02;95004.22;5117131;28;1060;-50
2022/04/11 03:12:25;;;;;;;;;;;;;;;6.29;55.59;95016.50;5117153;28;1040;-50
2022/04/11 03:14:51;;;;;;;;;;;;;;;6.25;55.78;95018.59;5098838;28;1069;-50
2022/04/11 03:17:17;;;;;;;;;;;;;;;6.18;56.76;95019.28;5117060;28;1092;-50
2022/04/11 03:19:44;;;;;;;;;;;;;;;6.16;56.20;95027.38;5117057;28;1033;-50
2022/04/11 03:22:10;;;;;;;;;;;;;;;6.16;56.39;95021.25;5116963;28;1227;-50
2022/04/11 03:24:37;;;;;;;;;;;;;;;6.15;56.07;95032.88;5116840;28;1993;-50
2022/04/11 03:27:03;;;;;;;;;;;;;;;6.15;56.22;95035.50;5116838;28;1858;-49
2022/04/11 03:29:29;;;;;;;;;;;;;;;6.12;56.27;95038.44;5116841;28;1043;-49
2022/04/11 03:31:55;;;;;;;;;;;;;;;6.22;56.13;95033.97;5116674;28;1045;-50
2022/04/11 03:34:21;;;;;;;;;;;;;;;6.17;55.65;95038.88;5116582;28;1065;-50
2022/04/11 03:36:47;;;;;;;;;;;;;;;6.16;56.07;95045.16;5116885;28;1059;-49
2022/04/11 03:39:13;;;;;;;;;;;;;;;6.09;57.34;95046.66;5116677;28;1133;-49
2022/04/11 03:41:43;;;;;;;;;;;;;;;6.04;57.02;95039.94;5116902;28;1135;-49
2022/04/11 03:44:10;;;;;;;;;;;;;;;6.03;56.67;95054.22;5116372;28;1917;-49
2022/04/11 03:46:36;;;;;;;;;;;;;;;6.04;57.10;95057.69;5116173;28;1139;-49
2022/04/11 03:49:02;;;;;;;;;;;;;;;6.12;56.62;95057.00;5116590;28;1031;-49
2022/04/11 03:51:28;;;;;;;;;;;;;;;6.11;56.68;95065.94;5111743;28;1799;-50
2022/04/11 03:53:55;;;;;;;;;;;;;;;6.03;56.30;95072.78;5116483;28;980;-49
2022/04/11 03:56:21;;;;;;;;;;;;;;;5.97;56.74;95069.81;5116447;28;969;-50
2022/04/11 03:58:47;;;;;;;;;;;;;;;6.05;55.91;95069.97;5116546;28;972;-49
2022/04/11 04:01:13;;;;;;;;;;;;;;;6.11;56.37;95084.53;5116127;28;1039;-50
2022/04/11 04:03:40;;;;;;;;;;;;;;;6.08;56.59;95090.13;5116111;28;1918;-50
2022/04/11 04:06:06;;;;;;;;;;;;;;;6.04;55.47;95079.75;5115946;28;1090;-50
2022/04/11 04:08:32;;;;;;;;;;;;;;;6.05;56.00;95083.25;5116181;28;1062;-50
2022/04/11 04:10:58;;;;;;;;;;;;;;;6.01;56.17;95098.63;5116013;28;976;-49
2022/04/11 04:13:24;;;;;;;;;;;;;;;5.97;56.27;95094.53;5116210;28;1015;-50
2022/04/11 04:15:50;;;;;;;;;;;;;;;6.02;56.61;95102.94;5116073;28;1001;-50
2022/04/11 04:18:16;;;;;;;;;;;;;;;6.03;56.38;95112.59;5115915;28;992;-50
2022/04/11 04:20:42;;;;;;;;;;;;;;;6.01;56.09;95111.03;5116005;28;1039;-50
2022/04/11 04:23:08;;;;;;;;;;;;;;;6.04;55.76;95118.75;5115704;28;1020;-49
2022/04/11 04:25:35;;;;;;;;;;;;;;;6.02;56.19;95110.06;5115849;28;2000;-50
2022/04/11 04:28:01;;;;;;;;;;;;;;;6.06;55.92;95124.75;5115993;28;1048;-49
2022/04/11 04:30:30;;;;;;;;;;;;;;;6.03;56.10;95123.22;5115660;28;1012;-49
2022/04/11 04:32:57;;;;;;;;;;;;;;;6.04;55.61;95119.56;5115724;28;999;-50
2022/04/11 04:35:23;;;;;;;;;;;;;;;6.10;55.87;95130.63;5115389;28;1032;-50
2022/04/11 04:37:49;;;;;;;;;;;;;;;6.09;55.84;95132.47;5115605;28;1014;-49
2022/04/11 04:40:15;;;;;;;;;;;;;;;6.02;56.46;95142.75;5115328;28;1095;-50
2022/04/11 04:42:41;;;;;;;;;;;;;;;6.00;55.90;95152.66;5115613;28;977;-49
2022/04/11 04:45:07;;;;;;;;;;;;;;;6.10;55.42;95165.16;5115417;28;1993;-49
2022/04/11 04:47:33;;;;;;;;;;;;;;;6.17;55.98;95161.81;5115534;28;1056;-50
2022/04/11 04:49:59;;;;;;;;;;;;;;;6.13;55.57;95163.06;5115218;28;1020;-50
2022/04/11 04:52:25;;;;;;;;;;;;;;;6.15;56.10;95162.94;5119205;27;1414;-50
2022/04/11 04:54:51;;;;;;;;;;;;;;;6.03;56.32;95163.03;5115115;28;1044;-50
2022/04/11 04:57:17;;;;;;;;;;;;;;;6.02;55.58;95163.16;5114942;28;992;-50
2022/04/11 04:59:43;;;;;;;;;;;;;;;6.01;56.27;95164.97;5114240;28;1009;-49
2022/04/11 05:02:09;;;;;;;;;;;;;;;6.02;55.60;95177.25;5114842;28;1061;-49
2022/04/11 05:04:35;;;;;;;;;;;;;;;6.02;56.55;95177.25;5115188;28;1910;-50
2022/04/11 05:07:01;;;;;;;;;;;;;;;6.09;56.38;95184.69;5115365;28;1085;-49
2022/04/11 05:09:27;;;;;;;;;;;;;;;6.11;55.73;95177.44;5115091;28;961;-49
2022/04/11 05:11:53;;;;;;;;;;;;;;;6.11;55.67;95182.75;5114449;28;1985;-50
2022/04/11 05:14:19;;;;;;;;;;;;;;;6.15;56.21;95179.69;5114917;28;974;-50
2022/04/11 05:16:45;;;;;;;;;;;;;;;6.20;55.79;95181.94;5114691;28;1067;-49
2022/04/11 05:19:11;;;;;;;;;;;;;;;6.23;55.72;95194.97;5114999;28;1030;-50
2022/04/11 05:21:37;;;;;;;;;;;;;;;6.28;55.38;95192.75;5114441;28;1196;-49
2022/04/11 05:24:03;;;;;;;;;;;;;;;6.41;54.88;95200.47;5114430;28;1982;-48
2022/04/11 05:26:30;;;;;;;;;;;;;;;6.50;54.73;95204.16;5114429;28;1028;-49
2022/04/11 05:28:56;;;;;;;;;;;;;;;6.49;54.56;95197.13;5114721;28;1012;-49
2022/04/11 05:31:22;;;;;;;;;;;;;;;6.61;54.18;95209.34;5114226;28;1857;-49
2022/04/11 05:33:48;;;;;;;;;;;;;;;6.57;53.93;95202.63;5114657;28;1019;-49
2022/04/11 05:36:17;;;;;;;;;;;;;;;6.52;53.91;95215.47;5114122;28;1087;-48
2022/04/11 05:38:43;;;;;;;;;;;;;;;6.56;54.42;95208.91;5114382;28;1058;-49
2022/04/11 05:41:09;;;;;;;;;;;;;;;6.60;53.96;95212.97;5114174;28;1037;-49
2022/04/11 05:43:35;;;;;;;;;;;;;;;6.70;53.99;95218.34;5114040;28;1041;-49
2022/04/11 05:46:02;;;;;;;;;;;;;;;6.90;53.61;95211.25;5113828;28;1914;-49
2022/04/11 05:48:35;;;;;;;;;;;;;;;7.36;52.98;95201.75;5114417;28;1139;-49
2022/04/11 05:51:01;;;;;;;;;;;;;;;8.22;51.92;95233.72;5111058;28;1225;-50
2022/04/11 05:53:28;;;;;;;;;;;;;;;8.73;49.33;95235.13;5112784;28;1092;-49
2022/04/11 05:55:54;;;;;;;;;;;;;;;9.13;49.47;95230.41;5113903;28;973;-49
2022/04/11 05:58:20;;;;;;;;;;;;;;;9.28;48.12;95238.72;5113998;28;945;-50
2022/04/11 06:00:46;;;;;;;;;;;;;;;9.50;47.81;95242.78;5114217;28;1009;-49
2022/04/11 06:03:12;;;;;;;;;;;;;;;9.73;47.35;95245.81;5114006;28;1048;-49
2022/04/11 06:05:39;;;;;;;;;;;;;;;9.88;46.45;95246.09;5114130;28;1988;-50
2022/04/11 06:08:05;;;;;;;;;;;;;;;9.96;46.18;95246.19;5113687;28;993;-50
2022/04/11 06:10:31;;;;;;;;;;;;;;;9.87;45.89;95252.47;5114014;28;969;-49
2022/04/11 06:12:57;;;;;;;;;;;;;;;9.98;45.81;95262.91;5113461;28;1059;-50
2022/04/11 06:15:23;;;;;;;;;;;;;;;10.22;45.44;95270.25;5113999;28;1024;-48
2022/04/11 06:17:49;;;;;;;;;;;;;;;10.27;45.67;95267.94;5113786;28;1036;-49
2022/04/11 06:20:16;;;;;;;;;;;;;;;10.53;44.58;95278.69;5113958;28;1028;-50
2022/04/11 06:22:42;;;;;;;;;;;;;;;11.10;44.30;95263.94;5113405;28;938;-49
2022/04/11 06:25:09;;;;;;;;;;;;;;;11.47;42.79;95254.66;5113749;28;1957;-49
2022/04/11 06:27:36;;;;;;;;;;;;;;;11.42;41.89;95268.56;5113473;28;1088;-50
2022/04/11 06:30:02;;;;;;;;;;;;;;;11.90;41.94;95272.34;5113435;28;1028;-49
2022/04/11 06:32:29;;;;;;;;;;;;;;;12.23;41.73;95275.00;5113626;28;1031;-49
2022/04/11 06:34:55;;;;;;;;;;;;;;;12.10;41.22;95277.34;5113470;28;1142;-49
2022/04/11 06:37:23;;;;;;;;;;;;;;;12.76;39.32;95282.66;5113451;28;984;-50
2022/04/11 06:39:53;;;;;;;;;;;;;;;12.53;40.22;95286.06;5113648;28;1035;-50
2022/04/11 06:42:19;;;;;;;;;;;;;;;13.09;40.14;95281.56;5095301;28;1016;-49
2022/04/11 06:44:45;;;;;;;;;;;;;;;13.85;38.28;95283.72;5113256;28;1905;-50
2022/04/11 06:47:11;;;;;;;;;;;;;;;15.47;33.99;95284.19;5113267;28;1028;-50
2022/04/11 06:49:37;;;;;;;;;;;;;;;17.54;31.68;95297.66;5113728;28;1096;-51
2022/04/11 06:52:04;;;;;;;;;;;;;;;20.40;28.30;95295.84;5117184;28;1177;-52
2022/04/11 06:54:33;;;;;;;;;;;;;;;22.92;25.27;95295.97;5113396;28;1087;-51
2022/04/11 06:56:59;;;;;;;;;;;;;;;24.35;23.75;95295.59;5113192;28;1012;-51
2022/04/11 06:59:25;;;;;;;;;;;;;;;22.37;25.42;95302.47;5113413;28;949;-52
2022/04/11 07:01:52;;;;;;;;;;;;;;;24.40;22.84;95308.53;5113379;28;821;-51
2022/04/11 07:04:18;;;;;;;;;;;;;;;25.45;20.52;95319.94;5113032;28;1985;-51
2022/04/11 07:06:44;;;;;;;;;;;;;;;24.10;23.12;95311.50;5113101;28;1032;-52
2022/04/11 07:09:10;;;;;;;;;;;;;;;25.16;20.74;95312.91;5113084;28;1077;-51
2022/04/11 07:11:36;;;;;;;;;;;;;;;26.32;20.44;95324.97;5113176;28;1041;-51
2022/04/11 07:14:03;;;;;;;;;;;;;;;26.59;19.65;95328.59;5112699;28;1040;-51
2022/04/11 07:16:29;;;;;;;;;;;;;;;25.94;20.54;95334.91;5113399;28;1013;-52
2022/04/11 07:18:55;;;;;;;;;;;;;;;25.99;20.46;95330.34;5112864;28;1891;-51
2022/04/11 07:21:21;;;;;;;;;;;;;;;24.82;20.27;95335.56;5113696;28;1022;-50
2022/04/11 07:23:47;;;;;;;;;;;;;;;22.08;24.03;95331.31;5116727;28;1017;-51
2022/04/11 07:26:13;;;;;;;;;;;;;;;19.80;27.74;95349.56;5117212;28;973;-51
2022/04/11 07:28:39;;;;;;;;;;;;;;;19.65;27.36;95344.38;5116670;28;1000;-51
2022/04/11 07:31:05;;;;;;;;;;;;;;;18.33;28.10;95336.06;5116771;28;1156;-50
2022/04/11 07:33:31;;;;;;;;;;;;;;;17.50;30.13;95349.63;5116609;28;1036;-49
2022/04/11 07:35:57;;;;;;;;;;;;;;;17.53;30.78;95344.66;5116749;28;960;-50
2022/04/11 07:38:23;;;;;;;;;;;;;;;17.34;30.20;95335.41;5116643;28;1008;-50
2022/04/11 07:40:49;;;;;;;;;;;;;;;17.16;30.74;95344.00;5116580;28;1084;-50
2022/04/11 07:43:16;;;;;;;;;;;;;;;17.01;31.92;95340.56;5116184;28;1056;-49
2022/04/11 07:45:42;;;;;;;;;;;;;;;16.73;31.27;95343.22;5116442;28;1914;-49
2022/04/11 07:48:08;;;;;;;;;;;;;;;16.44;32.83;95341.50;5116590;28;1031;-49
2022/04/11 07:50:35;;;;;;;;;;;;;;;16.37;32.72;95349.53;5116500;28;1036;-49
2022/04/11 07:53:01;;;;;;;;;;;;;;;16.30;31.70;95354.03;5111902;28;1194;-49
2022/04/11 07:55:27;;;;;;;;;;;;;;;16.10;32.42;95354.66;5116345;28;1032;-50
2022/04/11 07:57:53;;;;;;;;;;;;;;;16.06;32.11;95356.06;5116437;28;1149;-50
2022/04/11 08:00:20;;;;;;;;;;;;;;;15.99;32.99;95380.25;5116764;28;1033;-51
2022/04/11 08:02:50;;;;;;;;;;;;;;;15.76;33.36;95380.41;5116381;28;995;-50
2022/04/11 08:05:19;;;;;;;;;;;;;;;15.86;32.83;95374.72;5116005;28;1905;-51
2022/04/11 08:07:46;;;;;;;;;;;;;;;15.34;33.59;95389.91;5116142;28;962;-50
2022/04/11 08:10:12;;;;;;;;;;;;;;;15.30;34.33;95379.72;5116167;28;1028;-50
2022/04/11 08:12:38;;;;;;;;;;;;;;;15.32;35.09;95388.44;5116148;28;1225;-50
2022/04/11 08:15:04;;;;;;;;;;;;;;;15.28;34.07;95385.28;5115787;28;1970;-49
2022/04/11 08:17:30;;;;;;;;;;;;;;;15.19;34.09;95394.47;5098133;28;1203;-49
2022/04/11 08:19:56;;;;;;;;;;;;;;;13.75;37.12;95401.34;5115973;28;981;-50
2022/04/11 08:22:22;;;;;;;;;;;;;;;13.56;36.01;95405.28;5115798;28;1092;-50
2022/04/11 08:24:48;;;;;;;;;;;;;;;14.04;35.04;95412.28;5115738;28;1906;-50
2022/04/11 08:27:15;;;;;;;;;;;;;;;14.29;34.36;95401.41;5115756;28;968;-50
2022/04/11 08:29:41;;;;;;;;;;;;;;;14.87;34.04;95407.19;5115835;28;1040;-51
2022/04/11 08:32:07;;;;;;;;;;;;;;;14.58;34.33;95399.88;5115716;28;1048;-51
2022/04/11 08:34:33;;;;;;;;;;;;;;;14.44;34.84;95404.16;5114423;28;1025;-50
2022/04/11 08:36:59;;;;;;;;;;;;;;;13.97;35.18;95415.88;5115447;28;1119;-50
2022/04/11 08:39:25;;;;;;;;;;;;;;;13.35;35.95;95420.09;5115566;28;967;-50
2022/04/11 08:41:52;;;;;;;;;;;;;;;12.69;36.53;95414.81;5115511;28;993;-51
2022/04/11 08:44:19;;;;;;;;;;;;;;;13.60;36.57;95418.22;5115430;28;1910;-51
2022/04/11 08:46:45;;;;;;;;;;;;;;;14.25;36.46;95413.53;5115584;28;962;-50
2022/04/11 08:49:11;;;;;;;;;;;;;;;14.69;35.99;95412.91;5115283;28;972;-50
2022/04/11 08:51:38;;;;;;;;;;;;;;;14.91;34.62;95424.69;5119296;27;1177;-51
2022/04/11 08:54:05;;;;;;;;;;;;;;;14.79;34.02;95426.13;5115168;28;957;-50
2022/04/11 08:56:31;;;;;;;;;;;;;;;14.61;36.37;95427.28;5115287;28;1071;-51
2022/04/11 08:58:58;;;;;;;;;;;;;;;14.46;35.38;95431.72;5115006;28;1032;-50
2022/04/11 09:01:24;;;;;;;;;;;;;;;14.33;35.55;95426.09;5115168;28;1055;-50
2022/04/11 09:03:50;;;;;;;;;;;;;;;14.51;34.95;95423.09;5115093;28;1056;-50
2022/04/11 09:06:18;;;;;;;;;;;;;;;13.91;34.88;95422.78;5114934;28;2021;-50
2022/04/11 09:08:46;;;;;;;;;;;;;;;14.33;35.08;95421.53;5114871;28;1017;-51
2022/04/11 09:11:12;;;;;;;;;;;;;;;13.25;36.15;95432.88;5114955;28;1012;-51
2022/04/11 09:13:45;;;;;;;;;;;;;;;12.85;37.61;95423.84;5114945;28;1004;-50
2022/04/11 09:16:11;;;;;;;;;;;;;;;13.49;37.85;95426.63;5114906;28;988;-50
2022/04/11 09:18:52;;;;;;;;;;;;;;;14.12;36.03;95432.91;5114730;28;1170;-50
2022/04/11 09:21:19;;;;;;;;;;;;;;;14.63;35.24;95438.69;5114346;28;1876;-50
2022/04/11 09:23:45;;;;;;;;;;;;;;;14.49;34.86;95412.50;5114711;28;1088;-50
2022/04/11 09:26:22;;;;;;;;;;;;;;;14.82;35.77;95433.84;5114543;28;1906;-50
2022/04/11 09:29:03;;;;;;;;;;;;;;;15.01;34.66;95435.19;5114511;28;918;-50
2022/04/11 10:07:10;;;;;;;;;;;;;;;12.38;38.66;95419.13;5131364;27;1272;-49
2022/04/11 10:09:39;;;;;;;;;;;;;;;12.09;38.48;95418.56;5131507;27;968;-49
2022/04/11 10:12:05;;;;;;;;;;;;;;;11.78;38.07;95423.66;5131379;27;968;-49
2022/04/11 10:14:31;;;;;;;;;;;;;;;11.45;39.36;95407.44;5131820;27;967;-49
2022/04/11 10:17:00;;;;;;;;;;;;;;;12.12;40.07;95414.72;5131356;27;1055;-49
2022/04/11 10:19:29;;;;;;;;;;;;;;;12.56;38.59;95414.47;5131404;27;1200;-49
2022/04/11 10:22:01;;;;;;;;;;;;;;;13.27;37.83;95422.78;5130873;27;1091;-49
2022/04/11 10:24:33;;;;;;;;;;;;;;;13.02;37.32;95417.47;5131540;27;980;-49
2022/04/11 10:27:14;;;;;;;;;;;;;;;12.68;37.98;95415.78;5130951;27;1910;-49
2022/04/11 10:29:40;;;;;;;;;;;;;;;12.18;38.38;95413.22;5131327;28;979;-50
2022/04/11 10:32:09;;;;;;;;;;;;;;;11.97;39.57;95429.75;5130833;28;1139;-49
2022/04/11 10:34:45;;;;;;;;;;;;;;;12.72;38.51;95415.47;5131044;27;1031;-50
2022/04/11 10:37:11;;;;;;;;;;;;;;;12.71;39.44;95422.69;5130842;27;1836;-49
2022/04/11 10:39:39;;;;;;;;;;;;;;;13.07;37.66;95425.84;5131088;27;1186;-50
2022/04/11 10:42:06;;;;;;;;;;;;;;;12.74;37.64;95418.81;5130783;27;1048;-49
2022/04/11 10:44:32;;;;;;;;;;;;;;;12.31;37.52;95418.94;5130874;27;1044;-49
2022/04/11 10:47:07;;;;;;;;;;;;;;;12.10;38.67;95420.28;5130434;27;1991;-49
2022/04/11 10:49:48;;;;;;;;;;;;;;;11.76;39.09;95432.84;5129453;28;1632;-49
2022/04/11 10:52:27;;;;;;;;;;;;;;;11.70;38.70;95420.94;5130714;27;1157;-49
2022/04/11 10:54:57;;;;;;;;;;;;;;;11.63;38.52;95441.31;5130722;27;1047;-49
2022/04/11 10:57:33;;;;;;;;;;;;;;;11.90;38.43;95435.78;5130517;27;995;-49
2022/04/11 11:00:08;;;;;;;;;;;;;;;12.08;37.72;95430.31;5130602;27;1012;-48
2022/04/11 11:02:50;;;;;;;;;;;;;;;11.98;37.79;95426.09;5130691;27;972;-48
2022/04/11 11:05:40;;;;;;;;;;;;;;;11.80;39.20;95436.88;5130554;27;1913;-50
2022/04/11 11:08:07;;;;;;;;;;;;;;;11.63;38.58;95434.13;5129083;28;1033;-49
2022/04/11 11:10:43;;;;;;;;;;;;;;;11.49;38.73;95450.78;5130541;27;1290;-49
2022/04/11 11:13:29;;;;;;;;;;;;;;;11.41;38.82;95438.19;5130638;27;960;-49
2022/04/11 11:15:56;;;;;;;;;;;;;;;11.51;39.68;95449.66;5130720;27;1059;-49
2022/04/11 11:18:22;;;;;;;;;;;;;;;11.65;38.85;95445.53;5117296;27;1028;-49
2022/04/11 11:20:55;;;;;;;;;;;;;;;11.85;39.13;95443.41;5116722;28;960;-48
2022/04/11 11:23:31;;;;;;;;;;;;;;;11.81;38.39;95434.03;5116609;28;1011;-49
2022/04/11 11:26:08;;;;;;;;;;;;;;;11.77;37.92;95437.19;5116704;28;1901;-49
2022/04/11 11:28:34;;;;;;;;;;;;;;;11.75;37.69;95440.03;5116305;28;1110;-49
2022/04/11 11:31:00;;;;;;;;;;;;;;;11.74;37.49;95433.00;5116344;28;976;-49
2022/04/11 11:33:26;;;;;;;;;;;;;;;11.77;37.93;95434.53;5116204;28;1036;-49
2022/04/11 11:35:53;;;;;;;;;;;;;;;11.97;38.84;95440.47;5116394;28;1062;-49
2022/04/11 11:38:24;;;;;;;;;;;;;;;12.35;38.38;95448.94;5116443;28;1011;-49
2022/04/11 11:40:51;;;;;;;;;;;;;;;12.40;38.36;95434.03;5116580;28;968;-49
2022/04/11 11:43:18;;;;;;;;;;;;;;;12.27;37.51;95444.41;5115915;28;972;-50
2022/04/11 11:45:44;;;;;;;;;;;;;;;12.00;37.35;95432.94;5115981;28;1976;-49
2022/04/11 11:48:24;;;;;;;;;;;;;;;11.88;38.03;95428.88;5116169;28;991;-49
2022/04/11 11:50:51;;;;;;;;;;;;;;;12.01;36.76;95434.66;5115838;28;1185;-49
2022/04/11 11:53:18;;;;;;;;;;;;;;;12.29;37.06;95429.00;5116188;28;994;-49
2022/04/11 11:55:50;;;;;;;;;;;;;;;12.65;38.08;95431.38;5116028;28;964;-49
2022/04/11 11:58:17;;;;;;;;;;;;;;;12.86;37.06;95430.88;5115691;27;1080;-49
2022/04/11 12:00:49;;;;;;;;;;;;;;;12.97;37.71;95429.72;5115953;28;1956;-50
2022/04/11 12:06:00;;;;;;;;;;;;;;;12.55;36.11;95418.13;5115530;28;1992;-50
2022/04/11 12:08:30;;;;;;;;;;;;;;;12.28;36.52;95421.97;5115595;28;1020;-49
2022/04/11 12:11:00;;;;;;;;;;;;;;;12.21;38.37;95412.91;5115648;28;1004;-49
2022/04/11 12:13:26;;;;;;;;;;;;;;;12.15;37.66;95419.75;5115605;28;979;-50
2022/04/11 12:15:52;;;;;;;;;;;;;;;12.17;37.45;95409.72;5115656;28;957;-50
2022/04/11 12:18:18;;;;;;;;;;;;;;;12.17;37.42;95408.88;5115475;28;1003;-53
2022/04/11 12:20:45;;;;;;;;;;;;;;;11.99;39.40;95409.00;5115398;28;1074;-49
2022/04/11 12:23:11;;;;;;;;;;;;;;;11.87;36.25;95405.75;5115152;28;1059;-49
2022/04/11 12:25:39;;;;;;;;;;;;;;;11.66;36.46;95406.19;5115649;28;1984;-48
2022/04/11 12:28:24;;;;;;;;;;;;;;;11.64;37.01;95402.81;5114976;28;1014;-49
2022/04/11 12:31:02;;;;;;;;;;;;;;;11.79;38.45;95400.38;5115239;28;992;-49
2022/04/11 12:33:32;;;;;;;;;;;;;;;11.94;37.70;95398.78;5114907;28;1048;-50
2022/04/11 12:36:16;;;;;;;;;;;;;;;11.80;35.82;95404.72;5115327;28;1052;-49
2022/04/11 12:38:47;;;;;;;;;;;;;;;11.73;35.18;95399.19;5115291;28;1051;-49
2022/04/11 12:41:23;;;;;;;;;;;;;;;12.15;33.88;95395.63;5115239;28;1042;-50
2022/04/11 12:44:00;;;;;;;;;;;;;;;12.34;35.20;95391.81;5114901;28;976;-49
2022/04/11 12:46:26;;;;;;;;;;;;;;;12.18;36.24;95403.34;5115088;28;1995;-48
2022/04/11 12:48:59;;;;;;;;;;;;;;;12.04;36.64;95398.63;5114945;28;1054;-49
2022/04/11 12:51:27;;;;;;;;;;;;;;;11.83;35.61;95399.03;5115006;28;1177;-49
2022/04/11 12:54:00;;;;;;;;;;;;;;;11.76;36.45;95403.38;5114570;28;1028;-49
2022/04/11 12:56:32;;;;;;;;;;;;;;;11.77;36.53;95399.69;5114802;28;1075;-50
2022/04/11 12:58:58;;;;;;;;;;;;;;;11.87;35.75;95395.84;5114491;28;1027;-50
2022/04/11 13:01:24;;;;;;;;;;;;;;;11.84;35.70;95396.22;5114678;28;1019;-49
2022/04/11 13:03:50;;;;;;;;;;;;;;;11.81;36.55;95401.06;5114593;28;1036;-50
2022/04/11 13:06:16;;;;;;;;;;;;;;;11.73;36.45;95401.88;5114369;28;1902;-50
2022/04/11 13:08:42;;;;;;;;;;;;;;;11.65;37.02;95397.31;5114328;28;923;-49
2022/04/11 13:11:08;;;;;;;;;;;;;;;11.42;36.06;95402.41;5114439;28;964;-50
2022/04/11 13:13:34;;;;;;;;;;;;;;;11.49;36.47;95403.41;5114050;28;1980;-49
2022/04/11 13:18:46;;;;;;;;;;;;;;;11.95;35.93;95399.59;5114107;28;1004;-50
2022/04/11 13:21:12;;;;;;;;;;;;;;;11.84;35.34;95398.88;5114295;28;1087;-49
2022/04/11 13:23:38;;;;;;;;;;;;;;;11.65;35.82;95401.84;5114656;28;983;-49
2022/04/11 13:26:04;;;;;;;;;;;;;;;11.51;36.03;95400.59;5113962;28;1995;-50
2022/04/11 13:28:30;;;;;;;;;;;;;;;11.44;35.51;95400.41;5114325;28;961;-49
2022/04/11 13:30:57;;;;;;;;;;;;;;;11.43;35.64;95396.03;5114314;28;1043;-50
2022/04/11 13:33:23;;;;;;;;;;;;;;;11.36;36.31;95394.16;5114237;28;999;-50
2022/04/11 13:35:50;;;;;;;;;;;;;;;11.30;35.65;95395.66;5114100;28;957;-49
2022/04/11 13:38:16;;;;;;;;;;;;;;;11.29;36.94;95394.81;5114397;28;1031;-48
2022/04/11 13:40:42;;;;;;;;;;;;;;;11.25;34.80;95400.63;5113497;28;1012;-49
2022/04/11 13:43:09;;;;;;;;;;;;;;;11.32;34.94;95383.78;5113988;28;1007;-49
2022/04/11 13:45:35;;;;;;;;;;;;;;;11.56;35.70;95397.44;5113920;28;1909;-49
2022/04/11 13:48:02;;;;;;;;;;;;;;;11.63;36.63;95387.75;5113760;28;1085;-49